Terminal Aerodrome Forecast
Issued by NWS

Home | Current Version | Previous Version | Graphics & Text | Print | Product List | Glossary On
Versions: 1 2 3 4 5 6 7 8 9 10 11 12 13 14 15 16 17 18 19
564
FTUS43 KBIS 230520
TAFDIK
TAF
KDIK 230520Z 2306/2406 07014G22KT P6SM OVC010
     FM232000 09014KT P6SM OVC035
     FM240500 09013KT P6SM OVC015=

USA.gov is the U.S. government's official web portal to all federal, state and local government web resources and services.